Punta Gialla — IWUC — position and weather

sailwx.info

Track history (hours):
 
Tides and Currents Weather Stations Pressure Air Temp Water Temp Dewpoint Dewpoint Depression Visibility Wind Speed Wind Dir Waves Ship Positions

Punta Gialla

Last reported at 2014-Sep-15 01:33 UTC. Time now 2014-Sep-15 02:06 UTC.
Position N 44°24' E 008°54'.

Length 52 m; draft 2 m.

Type: Tanker. MMSI: 247077500.

Date/timePositionNaut miles runAvg speedWind from/ knotsBaromVisibWave heightAir tempDewpointWater temp
2014-Sep-15 01:33N 44°24' E 008°54'0 0.0
2014-Sep-15 00:32N 44°24' E 008°54'0 0.0
2014-Sep-14 23:33N 44°24' E 008°54'0 0.0
2014-Sep-14 22:32N 44°24' E 008°54'0 0.0
2014-Sep-14 21:33N 44°24' E 008°54'0 0.0
2014-Sep-14 20:33N 44°24' E 008°54'0 0.0
2014-Sep-14 19:32N 44°24' E 008°54'0 0.0
2014-Sep-14 18:32N 44°24' E 008°54'0 0.0
2014-Sep-14 17:33N 44°24' E 008°54'0 0.0
2014-Sep-14 16:29N 44°24' E 008°54'0 0.0
2014-Sep-14 15:32N 44°24' E 008°54'0 0.0
2014-Sep-14 14:33N 44°24' E 008°54'0 0.0
2014-Sep-14 13:29N 44°24' E 008°54'0 0.0
2014-Sep-14 12:33N 44°24' E 008°54'0 0.0
2014-Sep-14 11:33N 44°24' E 008°54'0 0.0
2014-Sep-14 10:33N 44°24' E 008°54'0 0.0
2014-Sep-14 09:32N 44°24' E 008°54'0 0.0
2014-Sep-14 08:33N 44°24' E 008°54'0 0.0
2014-Sep-14 07:33N 44°24' E 008°54'0 0.0
2014-Sep-14 06:33N 44°24' E 008°54'0 0.0
2014-Sep-14 05:33N 44°24' E 008°54'0 0.0
2014-Sep-14 04:33N 44°24' E 008°54'0 0.0
2014-Sep-14 03:32N 44°24' E 008°54'0 0.0
2014-Sep-14 02:32N 44°24' E 008°54'0 0.0
2014-Sep-14 01:32N 44°24' E 008°54'0 0.0
2014-Sep-13 21:33N 44°24' E 008°54'0 0.0
2014-Sep-13 20:33N 44°24' E 008°54'0 0.0
2014-Sep-13 19:33N 44°24' E 008°54'0 0.0
2014-Sep-13 18:33N 44°24' E 008°54'0 0.0
2014-Sep-13 17:33N 44°24' E 008°54'0 0.0
2014-Sep-13 16:32N 44°24' E 008°54'0 0.2
2014-Sep-13 15:33N 44°24' E 008°54'1 0.8
2014-Sep-13 14:33N 44°25' E 008°55'0 0.0
2014-Sep-13 13:30N 44°25' E 008°55'0 0.3
2014-Sep-13 12:33N 44°24' E 008°55'1 0.5
2014-Sep-13 11:31N 44°24' E 008°54'1 0.9
2014-Sep-13 10:33N 44°25' E 008°55'0 0.0
2014-Sep-13 09:33N 44°25' E 008°55'1 0.5
2014-Sep-13 08:33N 44°24' E 008°55'1 0.5
2014-Sep-13 07:33N 44°24' E 008°54'0 0.0
2014-Sep-13 06:23N 44°24' E 008°54'0 0.0
2014-Sep-13 05:32N 44°24' E 008°54'0 0.0
2014-Sep-13 04:33N 44°24' E 008°54'0 0.0
2014-Sep-13 03:33N 44°24' E 008°54'0 0.0
2014-Sep-13 02:33N 44°24' E 008°54'0 0.0
2014-Sep-13 01:33N 44°24' E 008°54'0 0.0
2014-Sep-13 00:32N 44°24' E 008°54'0 0.0
2014-Sep-12 23:33N 44°24' E 008°54'0 0.0
2014-Sep-12 22:33N 44°24' E 008°54'0 0.0
2014-Sep-12 21:33N 44°24' E 008°54'0 0.0
2014-Sep-12 20:33N 44°24' E 008°54'0 0.0
2014-Sep-12 19:33N 44°24' E 008°54'0 0.0
2014-Sep-12 18:33N 44°24' E 008°54'0 0.0
2014-Sep-12 17:33N 44°24' E 008°54'0 0.0
2014-Sep-12 16:26N 44°24' E 008°54'0 0.0
2014-Sep-12 15:33N 44°24' E 008°54'0 0.0
2014-Sep-12 14:33N 44°24' E 008°54'0 0.4
2014-Sep-12 13:33N 44°24' E 008°55'0 0.1
2014-Sep-12 12:33N 44°24' E 008°55'0 0.5
2014-Sep-12 11:33N 44°24' E 008°54'0 0.0
2014-Sep-12 10:33N 44°24' E 008°54'0 0.0
2014-Sep-12 09:33N 44°24' E 008°54'0 0.0
2014-Sep-12 08:33N 44°24' E 008°54'0 0.0
2014-Sep-12 07:32N 44°24' E 008°54'0 0.0
2014-Sep-12 06:33N 44°24' E 008°54'0 0.0
2014-Sep-12 05:32N 44°24' E 008°54'0 0.0
2014-Sep-12 04:33N 44°24' E 008°54'0 0.0
2014-Sep-12 03:32N 44°24' E 008°54'0 0.0
2014-Sep-12 02:33N 44°24' E 008°54'0 0.0
2014-Sep-12 01:33N 44°24' E 008°54'0 0.0
2014-Sep-12 00:33N 44°24' E 008°54'0 0.0
2014-Sep-11 23:33N 44°24' E 008°54'0 0.0
2014-Sep-11 22:33N 44°24' E 008°54'5 4.6
2014-Sep-11 21:33N 44°21' E 008°58'8 8.4
2014-Sep-11 20:33N 44°14' E 009°06'9 9.3
2014-Sep-11 19:33N 44°08' E 009°16'9 8.9
2014-Sep-11 18:33N 44°03' E 009°26'9 9.1
2014-Sep-11 17:33N 44°00' E 009°38'8 8.5
2014-Sep-11 16:33N 44°01' E 009°50'5 4.7
2014-Sep-11 15:33N 44°05' E 009°50'0 0.0
2014-Sep-11 14:33N 44°05' E 009°50'0 0.0
2014-Sep-11 13:33N 44°05' E 009°50'0 0.0
2014-Sep-11 12:34N 44°05' E 009°50'5 5.0
2014-Sep-11 11:34N 44°02' E 009°54'7 7.3
2014-Sep-11 10:34N 43°58' E 009°46'6 6.3
2014-Sep-11 09:34N 44°01' E 009°39'7 7.0
2014-Sep-11 08:34N 44°05' E 009°31'9 8.7
2014-Sep-11 07:34N 44°09' E 009°19'9 8.8
2014-Sep-11 06:33N 44°13' E 009°09'8 8.4
2014-Sep-11 05:34N 44°19' E 008°60'7 6.8
2014-Sep-11 04:34N 44°24' E 008°54'0 0.0
2014-Sep-11 03:33N 44°24' E 008°54'0 0.0
2014-Sep-11 02:33N 44°24' E 008°54'0 0.0
2014-Sep-11 01:33N 44°24' E 008°54'0 0.0
2014-Sep-11 00:34N 44°24' E 008°54'0 0.0
2014-Sep-10 23:33N 44°24' E 008°54'0 0.0
2014-Sep-10 22:33N 44°24' E 008°54'0 0.0
2014-Sep-10 21:33N 44°24' E 008°54'0 0.0
2014-Sep-10 20:33N 44°24' E 008°54'0 0.0
2014-Sep-10 19:33N 44°24' E 008°54'0 0.0
2014-Sep-10 18:33N 44°24' E 008°54'0 0.0
2014-Sep-10 17:31N 44°24' E 008°54'0 0.0
2014-Sep-10 16:33N 44°24' E 008°54'0 0.0
2014-Sep-10 15:33N 44°24' E 008°54'0 0.0
2014-Sep-10 14:34N 44°24' E 008°54'0 0.4
2014-Sep-10 13:34N 44°24' E 008°54'0 0.0
2014-Sep-10 12:33N 44°24' E 008°54'0 0.4
2014-Sep-10 11:32N 44°24' E 008°54'0 0.0
2014-Sep-10 10:33N 44°24' E 008°54'0 0.0
2014-Sep-10 09:32N 44°24' E 008°54'0 0.0
2014-Sep-10 08:32N 44°24' E 008°54'0 0.1
2014-Sep-10 07:33N 44°24' E 008°54'0 0.0
2014-Sep-10 06:33N 44°24' E 008°54'0 0.0
2014-Sep-10 05:33N 44°24' E 008°54'0 0.0
2014-Sep-10 04:33N 44°24' E 008°54'0 0.0
2014-Sep-10 03:33N 44°24' E 008°54'0 0.0
2014-Sep-10 02:33N 44°24' E 008°54'0 0.0
2014-Sep-10 01:33N 44°24' E 008°54'0 0.0
2014-Sep-10 00:33N 44°24' E 008°54'0 0.0
2014-Sep-09 23:33N 44°24' E 008°54'0 0.0
2014-Sep-09 22:33N 44°24' E 008°54'0 0.0
2014-Sep-09 21:33N 44°24' E 008°54'0 0.0
2014-Sep-09 20:33N 44°24' E 008°54'0 0.0
2014-Sep-09 19:33N 44°24' E 008°54'0 0.0
2014-Sep-09 18:33N 44°24' E 008°54'0 0.0
2014-Sep-09 17:32N 44°24' E 008°54'0 0.0
2014-Sep-09 16:30N 44°24' E 008°54'0 0.5
2014-Sep-09 15:33N 44°24' E 008°55'0 0.3
2014-Sep-09 14:32N 44°24' E 008°55'0 0.0
2014-Sep-09 13:33N 44°24' E 008°55'1 0.5
2014-Sep-09 12:33N 44°24' E 008°55'0 0.0
2014-Sep-09 11:33N 44°24' E 008°55'0 0.0
2014-Sep-09 10:33N 44°24' E 008°55'0 0.0
2014-Sep-09 09:33N 44°24' E 008°55'0 0.0
2014-Sep-09 08:33N 44°24' E 008°55'0 0.0
2014-Sep-09 07:32N 44°24' E 008°55'0 0.2
2014-Sep-09 06:33N 44°24' E 008°55'1 0.6
2014-Sep-09 05:33N 44°24' E 008°54'0 0.0
2014-Sep-09 04:33N 44°24' E 008°54'0 0.0
2014-Sep-09 03:33N 44°24' E 008°54'0 0.0
2014-Sep-09 02:33N 44°24' E 008°54'0 0.0
2014-Sep-09 01:33N 44°24' E 008°54'0 0.0
2014-Sep-09 00:33N 44°24' E 008°54'0 0.0
2014-Sep-08 23:33N 44°24' E 008°54'0 0.0
2014-Sep-08 22:33N 44°24' E 008°54'0 0.0
2014-Sep-08 21:33N 44°24' E 008°54'0 0.0
2014-Sep-08 20:32N 44°24' E 008°54'0 0.0
2014-Sep-08 19:33N 44°24' E 008°54'0 0.0
2014-Sep-08 18:33N 44°24' E 008°54'0 0.0
2014-Sep-08 17:33N 44°24' E 008°54'0 0.0
2014-Sep-08 16:33N 44°24' E 008°54'0 0.0
2014-Sep-08 15:33N 44°24' E 008°54'0 0.4
2014-Sep-08 14:33N 44°24' E 008°55'0 0.1
2014-Sep-08 13:33N 44°24' E 008°55'1 0.5
2014-Sep-08 12:33N 44°24' E 008°55'1 0.9
2014-Sep-08 11:33N 44°24' E 008°54'0 0.0
2014-Sep-08 10:33N 44°24' E 008°54'0 0.0
2014-Sep-08 09:33N 44°24' E 008°54'1 0.8
2014-Sep-08 08:33N 44°24' E 008°55'0 0.0
2014-Sep-08 07:33N 44°24' E 008°55'0 0.0
2014-Sep-08 06:33N 44°24' E 008°55'0 0.0
2014-Sep-08 05:33N 44°24' E 008°55'0 0.0
2014-Sep-08 04:33N 44°24' E 008°55'0 0.0
2014-Sep-08 03:33N 44°24' E 008°55'0 0.0
2014-Sep-08 02:33N 44°24' E 008°55'0 0.0
2014-Sep-08 01:33N 44°24' E 008°55'0 0.0
2014-Sep-08 00:33N 44°24' E 008°55'0 0.0
2014-Sep-07 23:33N 44°24' E 008°55'0 0.0
2014-Sep-07 22:33N 44°24' E 008°55'0 0.0
2014-Sep-07 21:32N 44°24' E 008°55'0 0.0
2014-Sep-07 20:33N 44°24' E 008°55'0 0.0
2014-Sep-07 19:33N 44°24' E 008°55'0 0.0
2014-Sep-07 18:33N 44°24' E 008°55'0 0.0
2014-Sep-07 17:33N 44°24' E 008°55'0 0.0
2014-Sep-07 16:32N 44°24' E 008°55'0 0.0
2014-Sep-07 15:33N 44°24' E 008°55'0 0.0
2014-Sep-07 14:33N 44°24' E 008°55'0 0.0
2014-Sep-07 13:33N 44°24' E 008°55'0 0.0
2014-Sep-07 12:32N 44°24' E 008°55'0 0.0
2014-Sep-07 11:33N 44°24' E 008°55'0 0.0
2014-Sep-07 10:33N 44°24' E 008°55'0 0.0
2014-Sep-07 09:33N 44°24' E 008°55'0 0.0
2014-Sep-07 08:33N 44°24' E 008°55'0 0.0
2014-Sep-07 07:33N 44°24' E 008°55'0 0.0
2014-Sep-07 06:33N 44°24' E 008°55'0 0.0
2014-Sep-07 05:33N 44°24' E 008°55'0 0.0
2014-Sep-07 04:33N 44°24' E 008°55'0 0.0
2014-Sep-07 03:33N 44°24' E 008°55'0 0.0
2014-Sep-07 02:33N 44°24' E 008°55'0 0.0
2014-Sep-07 01:33N 44°24' E 008°55'0 0.0
2014-Sep-07 00:33N 44°24' E 008°55'0 0.0
2014-Sep-06 23:33N 44°24' E 008°55'0 0.0
2014-Sep-06 22:33N 44°24' E 008°55'0 0.0
2014-Sep-06 21:33N 44°24' E 008°55'0 0.0
2014-Sep-06 20:33N 44°24' E 008°55'0 0.0
2014-Sep-06 19:33N 44°24' E 008°55'0 0.0
2014-Sep-06 18:33N 44°24' E 008°55'0 0.0
2014-Sep-06 17:33N 44°24' E 008°55'1 0.7
2014-Sep-06 16:33N 44°25' E 008°55'0 0.0
2014-Sep-06 15:33N 44°25' E 008°55'0 0.0
2014-Sep-06 14:32N 44°25' E 008°55'1 0.8
2014-Sep-06 13:33N 44°24' E 008°55'0 0.0
2014-Sep-06 12:33N 44°24' E 008°55'0 0.0
2014-Sep-06 11:33N 44°24' E 008°55'0 0.0
2014-Sep-06 10:33N 44°24' E 008°55'2 1.7
2014-Sep-06 09:33N 44°24' E 008°53'0 0.0
2014-Sep-06 08:32N 44°24' E 008°53'0 0.0
2014-Sep-06 07:33N 44°24' E 008°53'0 0.4
2014-Sep-06 06:33N 44°24' E 008°53'1 0.9
2014-Sep-06 05:33N 44°24' E 008°54'0 0.0
2014-Sep-06 04:25N 44°24' E 008°54'0 0.0
2014-Sep-06 03:33N 44°24' E 008°54'0 0.0
2014-Sep-06 02:33N 44°24' E 008°54'0 0.0
2014-Sep-06 01:33N 44°24' E 008°54'0 0.0
2014-Sep-06 00:33N 44°24' E 008°54'0 0.0
2014-Sep-05 23:33N 44°24' E 008°54'0 0.0
2014-Sep-05 22:33N 44°24' E 008°54'0 0.0
2014-Sep-05 21:33N 44°24' E 008°54'0 0.0
2014-Sep-05 20:33N 44°24' E 008°54'0 0.0
2014-Sep-05 19:33N 44°24' E 008°54'0 0.0
2014-Sep-05 18:33N 44°24' E 008°54'0 0.0
2014-Sep-05 17:33N 44°24' E 008°54'0 0.0
2014-Sep-05 16:31N 44°24' E 008°54'0 0.0
2014-Sep-05 15:33N 44°24' E 008°54'0 0.0
2014-Sep-05 14:32N 44°24' E 008°54'0 0.0
2014-Sep-05 13:33N 44°24' E 008°54'0 0.4
2014-Sep-05 12:33N 44°24' E 008°55'0 0.0
2014-Sep-05 11:33N 44°24' E 008°55'0 0.4
2014-Sep-05 10:33N 44°24' E 008°54'0 0.0
2014-Sep-05 09:33N 44°24' E 008°54'0 0.0
2014-Sep-05 08:33N 44°24' E 008°54'0 0.0
2014-Sep-05 07:33N 44°24' E 008°54'0 0.0
2014-Sep-05 06:33N 44°24' E 008°54'0 0.0
2014-Sep-05 05:33N 44°24' E 008°54'0 0.0
2014-Sep-05 04:33N 44°24' E 008°54'0 0.0
2014-Sep-05 03:33N 44°24' E 008°54'0 0.0
2014-Sep-05 02:33N 44°24' E 008°54'0 0.0
2014-Sep-05 01:33N 44°24' E 008°54'  
Track history (hours):
 
Tides and Currents Weather Stations Pressure Air Temp Water Temp Dewpoint Dewpoint Depression Visibility Wind Speed Wind Dir Waves Ship Positions

Punta Gialla

Last reported at 2014-Sep-15 01:33 UTC. Time now 2014-Sep-15 02:06 UTC.
Position N 44°24' E 008°54'.

Length 52 m; draft 2 m.

Type: Tanker. MMSI: 247077500.

Date/timePositionNaut miles runAvg speedWind from/ knotsBaromVisibWave heightAir tempDewpointWater temp
2014-Sep-15 01:33N 44°24' E 008°54'0 0.0
2014-Sep-15 00:32N 44°24' E 008°54'0 0.0
2014-Sep-14 23:33N 44°24' E 008°54'0 0.0
2014-Sep-14 22:32N 44°24' E 008°54'0 0.0
2014-Sep-14 21:33N 44°24' E 008°54'0 0.0
2014-Sep-14 20:33N 44°24' E 008°54'0 0.0
2014-Sep-14 19:32N 44°24' E 008°54'0 0.0
2014-Sep-14 18:32N 44°24' E 008°54'0 0.0
2014-Sep-14 17:33N 44°24' E 008°54'0 0.0
2014-Sep-14 16:29N 44°24' E 008°54'0 0.0
2014-Sep-14 15:32N 44°24' E 008°54'0 0.0
2014-Sep-14 14:33N 44°24' E 008°54'0 0.0
2014-Sep-14 13:29N 44°24' E 008°54'0 0.0
2014-Sep-14 12:33N 44°24' E 008°54'0 0.0
2014-Sep-14 11:33N 44°24' E 008°54'0 0.0
2014-Sep-14 10:33N 44°24' E 008°54'0 0.0
2014-Sep-14 09:32N 44°24' E 008°54'0 0.0
2014-Sep-14 08:33N 44°24' E 008°54'0 0.0
2014-Sep-14 07:33N 44°24' E 008°54'0 0.0
2014-Sep-14 06:33N 44°24' E 008°54'0 0.0
2014-Sep-14 05:33N 44°24' E 008°54'0 0.0
2014-Sep-14 04:33N 44°24' E 008°54'0 0.0
2014-Sep-14 03:32N 44°24' E 008°54'0 0.0
2014-Sep-14 02:32N 44°24' E 008°54'0 0.0
2014-Sep-14 01:32N 44°24' E 008°54'0 0.0
2014-Sep-13 21:33N 44°24' E 008°54'0 0.0
2014-Sep-13 20:33N 44°24' E 008°54'0 0.0
2014-Sep-13 19:33N 44°24' E 008°54'0 0.0
2014-Sep-13 18:33N 44°24' E 008°54'0 0.0
2014-Sep-13 17:33N 44°24' E 008°54'0 0.0
2014-Sep-13 16:32N 44°24' E 008°54'0 0.2
2014-Sep-13 15:33N 44°24' E 008°54'1 0.8
2014-Sep-13 14:33N 44°25' E 008°55'0 0.0
2014-Sep-13 13:30N 44°25' E 008°55'0 0.3
2014-Sep-13 12:33N 44°24' E 008°55'1 0.5
2014-Sep-13 11:31N 44°24' E 008°54'1 0.9
2014-Sep-13 10:33N 44°25' E 008°55'0 0.0
2014-Sep-13 09:33N 44°25' E 008°55'1 0.5
2014-Sep-13 08:33N 44°24' E 008°55'1 0.5
2014-Sep-13 07:33N 44°24' E 008°54'0 0.0
2014-Sep-13 06:23N 44°24' E 008°54'0 0.0
2014-Sep-13 05:32N 44°24' E 008°54'0 0.0
2014-Sep-13 04:33N 44°24' E 008°54'0 0.0
2014-Sep-13 03:33N 44°24' E 008°54'0 0.0
2014-Sep-13 02:33N 44°24' E 008°54'0 0.0
2014-Sep-13 01:33N 44°24' E 008°54'0 0.0
2014-Sep-13 00:32N 44°24' E 008°54'0 0.0
2014-Sep-12 23:33N 44°24' E 008°54'0 0.0
2014-Sep-12 22:33N 44°24' E 008°54'0 0.0
2014-Sep-12 21:33N 44°24' E 008°54'0 0.0
2014-Sep-12 20:33N 44°24' E 008°54'0 0.0
2014-Sep-12 19:33N 44°24' E 008°54'0 0.0
2014-Sep-12 18:33N 44°24' E 008°54'0 0.0
2014-Sep-12 17:33N 44°24' E 008°54'0 0.0
2014-Sep-12 16:26N 44°24' E 008°54'0 0.0
2014-Sep-12 15:33N 44°24' E 008°54'0 0.0
2014-Sep-12 14:33N 44°24' E 008°54'0 0.4
2014-Sep-12 13:33N 44°24' E 008°55'0 0.1
2014-Sep-12 12:33N 44°24' E 008°55'0 0.5
2014-Sep-12 11:33N 44°24' E 008°54'0 0.0
2014-Sep-12 10:33N 44°24' E 008°54'0 0.0
2014-Sep-12 09:33N 44°24' E 008°54'0 0.0
2014-Sep-12 08:33N 44°24' E 008°54'0 0.0
2014-Sep-12 07:32N 44°24' E 008°54'0 0.0
2014-Sep-12 06:33N 44°24' E 008°54'0 0.0
2014-Sep-12 05:32N 44°24' E 008°54'0 0.0
2014-Sep-12 04:33N 44°24' E 008°54'0 0.0
2014-Sep-12 03:32N 44°24' E 008°54'0 0.0
2014-Sep-12 02:33N 44°24' E 008°54'0 0.0
2014-Sep-12 01:33N 44°24' E 008°54'0 0.0
2014-Sep-12 00:33N 44°24' E 008°54'0 0.0
2014-Sep-11 23:33N 44°24' E 008°54'0 0.0
2014-Sep-11 22:33N 44°24' E 008°54'5 4.6
2014-Sep-11 21:33N 44°21' E 008°58'8 8.4
2014-Sep-11 20:33N 44°14' E 009°06'9 9.3
2014-Sep-11 19:33N 44°08' E 009°16'9 8.9
2014-Sep-11 18:33N 44°03' E 009°26'9 9.1
2014-Sep-11 17:33N 44°00' E 009°38'8 8.5
2014-Sep-11 16:33N 44°01' E 009°50'5 4.7
2014-Sep-11 15:33N 44°05' E 009°50'0 0.0
2014-Sep-11 14:33N 44°05' E 009°50'0 0.0
2014-Sep-11 13:33N 44°05' E 009°50'0 0.0
2014-Sep-11 12:34N 44°05' E 009°50'5 5.0
2014-Sep-11 11:34N 44°02' E 009°54'7 7.3
2014-Sep-11 10:34N 43°58' E 009°46'6 6.3
2014-Sep-11 09:34N 44°01' E 009°39'7 7.0
2014-Sep-11 08:34N 44°05' E 009°31'9 8.7
2014-Sep-11 07:34N 44°09' E 009°19'9 8.8
2014-Sep-11 06:33N 44°13' E 009°09'8 8.4
2014-Sep-11 05:34N 44°19' E 008°60'7 6.8
2014-Sep-11 04:34N 44°24' E 008°54'0 0.0
2014-Sep-11 03:33N 44°24' E 008°54'0 0.0
2014-Sep-11 02:33N 44°24' E 008°54'0 0.0
2014-Sep-11 01:33N 44°24' E 008°54'0 0.0
2014-Sep-11 00:34N 44°24' E 008°54'0 0.0
2014-Sep-10 23:33N 44°24' E 008°54'0 0.0
2014-Sep-10 22:33N 44°24' E 008°54'0 0.0
2014-Sep-10 21:33N 44°24' E 008°54'0 0.0
2014-Sep-10 20:33N 44°24' E 008°54'0 0.0
2014-Sep-10 19:33N 44°24' E 008°54'0 0.0
2014-Sep-10 18:33N 44°24' E 008°54'0 0.0
2014-Sep-10 17:31N 44°24' E 008°54'0 0.0
2014-Sep-10 16:33N 44°24' E 008°54'0 0.0
2014-Sep-10 15:33N 44°24' E 008°54'0 0.0
2014-Sep-10 14:34N 44°24' E 008°54'0 0.4
2014-Sep-10 13:34N 44°24' E 008°54'0 0.0
2014-Sep-10 12:33N 44°24' E 008°54'0 0.4
2014-Sep-10 11:32N 44°24' E 008°54'0 0.0
2014-Sep-10 10:33N 44°24' E 008°54'0 0.0
2014-Sep-10 09:32N 44°24' E 008°54'0 0.0
2014-Sep-10 08:32N 44°24' E 008°54'0 0.1
2014-Sep-10 07:33N 44°24' E 008°54'0 0.0
2014-Sep-10 06:33N 44°24' E 008°54'0 0.0
2014-Sep-10 05:33N 44°24' E 008°54'0 0.0
2014-Sep-10 04:33N 44°24' E 008°54'0 0.0
2014-Sep-10 03:33N 44°24' E 008°54'0 0.0
2014-Sep-10 02:33N 44°24' E 008°54'0 0.0
2014-Sep-10 01:33N 44°24' E 008°54'0 0.0
2014-Sep-10 00:33N 44°24' E 008°54'0 0.0
2014-Sep-09 23:33N 44°24' E 008°54'0 0.0
2014-Sep-09 22:33N 44°24' E 008°54'0 0.0
2014-Sep-09 21:33N 44°24' E 008°54'0 0.0
2014-Sep-09 20:33N 44°24' E 008°54'0 0.0
2014-Sep-09 19:33N 44°24' E 008°54'0 0.0
2014-Sep-09 18:33N 44°24' E 008°54'0 0.0
2014-Sep-09 17:32N 44°24' E 008°54'0 0.0
2014-Sep-09 16:30N 44°24' E 008°54'0 0.5
2014-Sep-09 15:33N 44°24' E 008°55'0 0.3
2014-Sep-09 14:32N 44°24' E 008°55'0 0.0
2014-Sep-09 13:33N 44°24' E 008°55'1 0.5
2014-Sep-09 12:33N 44°24' E 008°55'0 0.0
2014-Sep-09 11:33N 44°24' E 008°55'0 0.0
2014-Sep-09 10:33N 44°24' E 008°55'0 0.0
2014-Sep-09 09:33N 44°24' E 008°55'0 0.0
2014-Sep-09 08:33N 44°24' E 008°55'0 0.0
2014-Sep-09 07:32N 44°24' E 008°55'0 0.2
2014-Sep-09 06:33N 44°24' E 008°55'1 0.6
2014-Sep-09 05:33N 44°24' E 008°54'0 0.0
2014-Sep-09 04:33N 44°24' E 008°54'0 0.0
2014-Sep-09 03:33N 44°24' E 008°54'0 0.0
2014-Sep-09 02:33N 44°24' E 008°54'0 0.0
2014-Sep-09 01:33N 44°24' E 008°54'0 0.0
2014-Sep-09 00:33N 44°24' E 008°54'0 0.0
2014-Sep-08 23:33N 44°24' E 008°54'0 0.0
2014-Sep-08 22:33N 44°24' E 008°54'0 0.0
2014-Sep-08 21:33N 44°24' E 008°54'0 0.0
2014-Sep-08 20:32N 44°24' E 008°54'0 0.0
2014-Sep-08 19:33N 44°24' E 008°54'0 0.0
2014-Sep-08 18:33N 44°24' E 008°54'0 0.0
2014-Sep-08 17:33N 44°24' E 008°54'0 0.0
2014-Sep-08 16:33N 44°24' E 008°54'0 0.0
2014-Sep-08 15:33N 44°24' E 008°54'0 0.4
2014-Sep-08 14:33N 44°24' E 008°55'0 0.1
2014-Sep-08 13:33N 44°24' E 008°55'1 0.5
2014-Sep-08 12:33N 44°24' E 008°55'1 0.9
2014-Sep-08 11:33N 44°24' E 008°54'0 0.0
2014-Sep-08 10:33N 44°24' E 008°54'0 0.0
2014-Sep-08 09:33N 44°24' E 008°54'1 0.8
2014-Sep-08 08:33N 44°24' E 008°55'0 0.0
2014-Sep-08 07:33N 44°24' E 008°55'0 0.0
2014-Sep-08 06:33N 44°24' E 008°55'0 0.0
2014-Sep-08 05:33N 44°24' E 008°55'0 0.0
2014-Sep-08 04:33N 44°24' E 008°55'0 0.0
2014-Sep-08 03:33N 44°24' E 008°55'0 0.0
2014-Sep-08 02:33N 44°24' E 008°55'0 0.0
2014-Sep-08 01:33N 44°24' E 008°55'0 0.0
2014-Sep-08 00:33N 44°24' E 008°55'0 0.0
2014-Sep-07 23:33N 44°24' E 008°55'0 0.0
2014-Sep-07 22:33N 44°24' E 008°55'0 0.0
2014-Sep-07 21:32N 44°24' E 008°55'0 0.0
2014-Sep-07 20:33N 44°24' E 008°55'0 0.0
2014-Sep-07 19:33N 44°24' E 008°55'0 0.0
2014-Sep-07 18:33N 44°24' E 008°55'0 0.0
2014-Sep-07 17:33N 44°24' E 008°55'0 0.0
2014-Sep-07 16:32N 44°24' E 008°55'0 0.0
2014-Sep-07 15:33N 44°24' E 008°55'0 0.0
2014-Sep-07 14:33N 44°24' E 008°55'0 0.0
2014-Sep-07 13:33N 44°24' E 008°55'0 0.0
2014-Sep-07 12:32N 44°24' E 008°55'0 0.0
2014-Sep-07 11:33N 44°24' E 008°55'0 0.0
2014-Sep-07 10:33N 44°24' E 008°55'0 0.0
2014-Sep-07 09:33N 44°24' E 008°55'0 0.0
2014-Sep-07 08:33N 44°24' E 008°55'0 0.0
2014-Sep-07 07:33N 44°24' E 008°55'0 0.0
2014-Sep-07 06:33N 44°24' E 008°55'0 0.0
2014-Sep-07 05:33N 44°24' E 008°55'0 0.0
2014-Sep-07 04:33N 44°24' E 008°55'0 0.0
2014-Sep-07 03:33N 44°24' E 008°55'0 0.0
2014-Sep-07 02:33N 44°24' E 008°55'0 0.0
2014-Sep-07 01:33N 44°24' E 008°55'0 0.0
2014-Sep-07 00:33N 44°24' E 008°55'0 0.0
2014-Sep-06 23:33N 44°24' E 008°55'0 0.0
2014-Sep-06 22:33N 44°24' E 008°55'0 0.0
2014-Sep-06 21:33N 44°24' E 008°55'0 0.0
2014-Sep-06 20:33N 44°24' E 008°55'0 0.0
2014-Sep-06 19:33N 44°24' E 008°55'0 0.0
2014-Sep-06 18:33N 44°24' E 008°55'0 0.0
2014-Sep-06 17:33N 44°24' E 008°55'1 0.7
2014-Sep-06 16:33N 44°25' E 008°55'0 0.0
2014-Sep-06 15:33N 44°25' E 008°55'0 0.0
2014-Sep-06 14:32N 44°25' E 008°55'1 0.8
2014-Sep-06 13:33N 44°24' E 008°55'0 0.0
2014-Sep-06 12:33N 44°24' E 008°55'0 0.0
2014-Sep-06 11:33N 44°24' E 008°55'0 0.0
2014-Sep-06 10:33N 44°24' E 008°55'2 1.7
2014-Sep-06 09:33N 44°24' E 008°53'0 0.0
2014-Sep-06 08:32N 44°24' E 008°53'0 0.0
2014-Sep-06 07:33N 44°24' E 008°53'0 0.4
2014-Sep-06 06:33N 44°24' E 008°53'1 0.9
2014-Sep-06 05:33N 44°24' E 008°54'0 0.0
2014-Sep-06 04:25N 44°24' E 008°54'0 0.0
2014-Sep-06 03:33N 44°24' E 008°54'0 0.0
2014-Sep-06 02:33N 44°24' E 008°54'0 0.0
2014-Sep-06 01:33N 44°24' E 008°54'0 0.0
2014-Sep-06 00:33N 44°24' E 008°54'0 0.0
2014-Sep-05 23:33N 44°24' E 008°54'0 0.0
2014-Sep-05 22:33N 44°24' E 008°54'0 0.0
2014-Sep-05 21:33N 44°24' E 008°54'0 0.0
2014-Sep-05 20:33N 44°24' E 008°54'0 0.0
2014-Sep-05 19:33N 44°24' E 008°54'0 0.0
2014-Sep-05 18:33N 44°24' E 008°54'0 0.0
2014-Sep-05 17:33N 44°24' E 008°54'0 0.0
2014-Sep-05 16:31N 44°24' E 008°54'0 0.0
2014-Sep-05 15:33N 44°24' E 008°54'0 0.0
2014-Sep-05 14:32N 44°24' E 008°54'0 0.0
2014-Sep-05 13:33N 44°24' E 008°54'0 0.4
2014-Sep-05 12:33N 44°24' E 008°55'0 0.0
2014-Sep-05 11:33N 44°24' E 008°55'0 0.4
2014-Sep-05 10:33N 44°24' E 008°54'0 0.0
2014-Sep-05 09:33N 44°24' E 008°54'0 0.0
2014-Sep-05 08:33N 44°24' E 008°54'0 0.0
2014-Sep-05 07:33N 44°24' E 008°54'0 0.0
2014-Sep-05 06:33N 44°24' E 008°54'0 0.0
2014-Sep-05 05:33N 44°24' E 008°54'0 0.0
2014-Sep-05 04:33N 44°24' E 008°54'0 0.0
2014-Sep-05 03:33N 44°24' E 008°54'0 0.0
2014-Sep-05 02:33N 44°24' E 008°54'0 0.0
2014-Sep-05 01:33N 44°24' E 008°54'  

Dump ship's entire track history